sensor_id;sensor_type;location;lat;lon;timestamp;temperature;humidity
35363;DHT22;21463;47.480;8.214;2023-07-24T00:00:09;21.80;58.10
35363;DHT22;21463;47.480;8.214;2023-07-24T00:01:12;21.80;58.10
35363;DHT22;21463;47.480;8.214;2023-07-24T00:02:16;21.80;58.20
35363;DHT22;21463;47.480;8.214;2023-07-24T00:03:18;21.80;58.20
35363;DHT22;21463;47.480;8.214;2023-07-24T00:04:20;21.80;58.20
35363;DHT22;21463;47.480;8.214;2023-07-24T00:05:23;21.80;58.20
35363;DHT22;21463;47.480;8.214;2023-07-24T00:06:25;21.80;58.20
35363;DHT22;21463;47.480;8.214;2023-07-24T00:07:27;21.80;58.30
35363;DHT22;21463;47.480;8.214;2023-07-24T00:08:30;21.80;58.30
35363;DHT22;21463;47.480;8.214;2023-07-24T00:09:32;21.80;58.30
35363;DHT22;21463;47.480;8.214;2023-07-24T00:10:34;21.80;58.30
35363;DHT22;21463;47.480;8.214;2023-07-24T00:11:36;21.80;58.30
35363;DHT22;21463;47.480;8.214;2023-07-24T00:12:39;21.80;58.30
35363;DHT22;21463;47.480;8.214;2023-07-24T00:13:44;21.90;58.50
35363;DHT22;21463;47.480;8.214;2023-07-24T00:14:46;21.80;58.30
35363;DHT22;21463;47.480;8.214;2023-07-24T00:15:48;21.80;58.30
35363;DHT22;21463;47.480;8.214;2023-07-24T00:16:51;21.80;58.30
35363;DHT22;21463;47.480;8.214;2023-07-24T00:17:53;21.80;58.40
35363;DHT22;21463;47.480;8.214;2023-07-24T00:18:56;21.80;58.40
35363;DHT22;21463;47.480;8.214;2023-07-24T00:19:58;21.80;58.50
35363;DHT22;21463;47.480;8.214;2023-07-24T00:21:00;21.80;58.50
35363;DHT22;21463;47.480;8.214;2023-07-24T00:22:03;21.80;58.50
35363;DHT22;21463;47.480;8.214;2023-07-24T00:23:06;21.80;58.60
35363;DHT22;21463;47.480;8.214;2023-07-24T00:24:09;21.80;58.70
35363;DHT22;21463;47.480;8.214;2023-07-24T00:25:11;21.80;59.30
35363;DHT22;21463;47.480;8.214;2023-07-24T00:26:13;21.80;58.80
35363;DHT22;21463;47.480;8.214;2023-07-24T00:27:19;21.80;58.80
35363;DHT22;21463;47.480;8.214;2023-07-24T00:28:23;21.80;58.70
35363;DHT22;21463;47.480;8.214;2023-07-24T00:29:26;21.80;58.60
35363;DHT22;21463;47.480;8.214;2023-07-24T00:30:28;21.80;58.70
35363;DHT22;21463;47.480;8.214;2023-07-24T00:31:31;21.90;58.80
35363;DHT22;21463;47.480;8.214;2023-07-24T00:32:33;21.80;58.90
35363;DHT22;21463;47.480;8.214;2023-07-24T00:33:37;21.80;58.90
35363;DHT22;21463;47.480;8.214;2023-07-24T00:34:39;21.80;58.90
35363;DHT22;21463;47.480;8.214;2023-07-24T00:35:41;21.80;58.90
35363;DHT22;21463;47.480;8.214;2023-07-24T00:36:44;21.80;58.90
35363;DHT22;21463;47.480;8.214;2023-07-24T00:37:49;21.80;58.80
35363;DHT22;21463;47.480;8.214;2023-07-24T00:38:51;21.80;58.80
35363;DHT22;21463;47.480;8.214;2023-07-24T00:39:53;21.80;58.80
35363;DHT22;21463;47.480;8.214;2023-07-24T00:40:57;21.80;58.80
35363;DHT22;21463;47.480;8.214;2023-07-24T00:41:59;21.80;58.80
35363;DHT22;21463;47.480;8.214;2023-07-24T00:43:01;21.80;58.80
35363;DHT22;21463;47.480;8.214;2023-07-24T00:44:06;21.80;58.80
35363;DHT22;21463;47.480;8.214;2023-07-24T00:45:09;21.80;58.80
35363;DHT22;21463;47.480;8.214;2023-07-24T00:46:11;21.80;58.80
35363;DHT22;21463;47.480;8.214;2023-07-24T00:47:13;21.80;58.80
35363;DHT22;21463;47.480;8.214;2023-07-24T00:48:16;21.80;58.90
35363;DHT22;21463;47.480;8.214;2023-07-24T00:49:18;21.80;58.90
35363;DHT22;21463;47.480;8.214;2023-07-24T00:50:23;21.80;58.90
35363;DHT22;21463;47.480;8.214;2023-07-24T00:51:27;21.80;58.90
35363;DHT22;21463;47.480;8.214;2023-07-24T00:52:29;21.80;59.00
35363;DHT22;21463;47.480;8.214;2023-07-24T00:53:32;21.80;58.90
35363;DHT22;21463;47.480;8.214;2023-07-24T00:54:34;21.80;58.90
35363;DHT22;21463;47.480;8.214;2023-07-24T00:55:37;21.80;58.90
35363;DHT22;21463;47.480;8.214;2023-07-24T00:56:42;21.90;59.00
35363;DHT22;21463;47.480;8.214;2023-07-24T00:57:44;21.80;59.00
35363;DHT22;21463;47.480;8.214;2023-07-24T00:58:47;21.80;59.10
35363;DHT22;21463;47.480;8.214;2023-07-24T00:59:49;21.80;59.10
35363;DHT22;21463;47.480;8.214;2023-07-24T01:00:54;21.80;59.10
35363;DHT22;21463;47.480;8.214;2023-07-24T01:01:57;21.80;59.10
35363;DHT22;21463;47.480;8.214;2023-07-24T01:03:00;21.80;59.20
35363;DHT22;21463;47.480;8.214;2023-07-24T01:04:02;21.80;59.20
35363;DHT22;21463;47.480;8.214;2023-07-24T01:05:07;21.80;59.30
35363;DHT22;21463;47.480;8.214;2023-07-24T01:06:10;21.80;59.30
35363;DHT22;21463;47.480;8.214;2023-07-24T01:07:12;21.90;59.40
35363;DHT22;21463;47.480;8.214;2023-07-24T01:08:17;21.80;59.40
35363;DHT22;21463;47.480;8.214;2023-07-24T01:09:19;21.80;59.40
35363;DHT22;21463;47.480;8.214;2023-07-24T01:10:22;20.40;58.80
35363;DHT22;21463;47.480;8.214;2023-07-24T01:11:30;21.80;59.50
35363;DHT22;21463;47.480;8.214;2023-07-24T01:13:56;21.90;59.80
35363;DHT22;21463;47.480;8.214;2023-07-24T01:15:02;21.80;59.80
35363;DHT22;21463;47.480;8.214;2023-07-24T01:16:08;21.80;59.90
35363;DHT22;21463;47.480;8.214;2023-07-24T01:17:13;21.80;59.90
35363;DHT22;21463;47.480;8.214;2023-07-24T01:18:16;21.90;59.90
35363;DHT22;21463;47.480;8.214;2023-07-24T01:20:21;21.80;60.00
35363;DHT22;21463;47.480;8.214;2023-07-24T01:21:32;21.80;60.00
35363;DHT22;21463;47.480;8.214;2023-07-24T01:22:39;21.80;60.00
35363;DHT22;21463;47.480;8.214;2023-07-24T01:23:55;21.80;60.10
35363;DHT22;21463;47.480;8.214;2023-07-24T01:26:13;21.80;60.20
35363;DHT22;21463;47.480;8.214;2023-07-24T01:27:20;21.80;60.20
35363;DHT22;21463;47.480;8.214;2023-07-24T01:28:22;21.80;60.30
35363;DHT22;21463;47.480;8.214;2023-07-24T01:29:25;21.80;60.30
35363;DHT22;21463;47.480;8.214;2023-07-24T01:30:27;21.80;60.40
35363;DHT22;21463;47.480;8.214;2023-07-24T01:31:29;21.80;60.40
35363;DHT22;21463;47.480;8.214;2023-07-24T01:32:32;21.80;60.30
35363;DHT22;21463;47.480;8.214;2023-07-24T01:33:34;21.80;60.40
35363;DHT22;21463;47.480;8.214;2023-07-24T01:34:37;21.80;60.40
35363;DHT22;21463;47.480;8.214;2023-07-24T01:35:40;21.90;60.50
35363;DHT22;21463;47.480;8.214;2023-07-24T01:36:43;21.90;60.50
35363;DHT22;21463;47.480;8.214;2023-07-24T01:37:46;21.80;60.60
35363;DHT22;21463;47.480;8.214;2023-07-24T01:38:48;21.80;60.50
35363;DHT22;21463;47.480;8.214;2023-07-24T01:39:51;21.80;60.60
35363;DHT22;21463;47.480;8.214;2023-07-24T01:40:55;21.80;60.60
35363;DHT22;21463;47.480;8.214;2023-07-24T01:41:59;21.80;60.60
35363;DHT22;21463;47.480;8.214;2023-07-24T01:43:02;21.80;60.70
35363;DHT22;21463;47.480;8.214;2023-07-24T01:44:05;21.80;60.70
35363;DHT22;21463;47.480;8.214;2023-07-24T01:45:07;21.80;60.80
35363;DHT22;21463;47.480;8.214;2023-07-24T01:46:10;21.80;60.80
35363;DHT22;21463;47.480;8.214;2023-07-24T01:47:12;21.80;60.80
35363;DHT22;21463;47.480;8.214;2023-07-24T01:48:15;21.90;61.00
35363;DHT22;21463;47.480;8.214;2023-07-24T01:49:18;21.90;61.00
35363;DHT22;21463;47.480;8.214;2023-07-24T01:50:20;21.80;60.90
35363;DHT22;21463;47.480;8.214;2023-07-24T01:51:26;21.80;61.00
35363;DHT22;21463;47.480;8.214;2023-07-24T01:52:28;21.80;61.00
35363;DHT22;21463;47.480;8.214;2023-07-24T01:53:30;21.80;61.00
35363;DHT22;21463;47.480;8.214;2023-07-24T01:54:32;21.80;61.10
35363;DHT22;21463;47.480;8.214;2023-07-24T01:55:35;21.80;61.10
35363;DHT22;21463;47.480;8.214;2023-07-24T01:56:39;21.80;61.10
35363;DHT22;21463;47.480;8.214;2023-07-24T01:57:42;21.80;61.20
35363;DHT22;21463;47.480;8.214;2023-07-24T01:58:45;21.80;61.20
35363;DHT22;21463;47.480;8.214;2023-07-24T01:59:48;21.80;61.20
35363;DHT22;21463;47.480;8.214;2023-07-24T02:00:51;21.80;61.30
35363;DHT22;21463;47.480;8.214;2023-07-24T02:01:53;21.80;61.30
35363;DHT22;21463;47.480;8.214;2023-07-24T02:02:56;21.80;61.40
35363;DHT22;21463;47.480;8.214;2023-07-24T02:03:58;21.80;61.40
35363;DHT22;21463;47.480;8.214;2023-07-24T02:05:01;21.90;61.50
35363;DHT22;21463;47.480;8.214;2023-07-24T02:06:04;21.80;61.50
35363;DHT22;21463;47.480;8.214;2023-07-24T02:07:07;21.80;61.60
35363;DHT22;21463;47.480;8.214;2023-07-24T02:08:09;21.80;61.60
35363;DHT22;21463;47.480;8.214;2023-07-24T02:09:11;21.80;61.60
35363;DHT22;21463;47.480;8.214;2023-07-24T02:10:14;21.80;61.70
35363;DHT22;21463;47.480;8.214;2023-07-24T02:11:16;21.80;61.70
35363;DHT22;21463;47.480;8.214;2023-07-24T02:12:22;21.80;61.70
35363;DHT22;21463;47.480;8.214;2023-07-24T02:13:25;21.80;61.90
35363;DHT22;21463;47.480;8.214;2023-07-24T02:14:27;21.80;61.80
35363;DHT22;21463;47.480;8.214;2023-07-24T02:15:30;21.80;61.80
35363;DHT22;21463;47.480;8.214;2023-07-24T02:16:32;21.80;61.90
35363;DHT22;21463;47.480;8.214;2023-07-24T02:17:35;21.80;61.90
35363;DHT22;21463;47.480;8.214;2023-07-24T02:18:38;21.80;61.90
35363;DHT22;21463;47.480;8.214;2023-07-24T02:19:42;21.80;62.00
35363;DHT22;21463;47.480;8.214;2023-07-24T02:20:48;21.80;62.00
35363;DHT22;21463;47.480;8.214;2023-07-24T02:21:52;21.80;62.10
35363;DHT22;21463;47.480;8.214;2023-07-24T02:22:54;21.80;62.10
35363;DHT22;21463;47.480;8.214;2023-07-24T02:23:57;21.80;62.10
35363;DHT22;21463;47.480;8.214;2023-07-24T02:24:59;21.80;62.70
35363;DHT22;21463;47.480;8.214;2023-07-24T02:26:03;21.80;62.20
35363;DHT22;21463;47.480;8.214;2023-07-24T02:27:05;21.80;62.20
35363;DHT22;21463;47.480;8.214;2023-07-24T02:28:08;21.80;62.30
35363;DHT22;21463;47.480;8.214;2023-07-24T02:29:19;21.80;62.30
35363;DHT22;21463;47.480;8.214;2023-07-24T02:30:22;21.80;62.30
35363;DHT22;21463;47.480;8.214;2023-07-24T02:31:25;21.80;62.30
35363;DHT22;21463;47.480;8.214;2023-07-24T02:32:28;21.80;62.40
35363;DHT22;21463;47.480;8.214;2023-07-24T02:33:30;21.80;62.50
35363;DHT22;21463;47.480;8.214;2023-07-24T02:34:33;21.80;62.40
35363;DHT22;21463;47.480;8.214;2023-07-24T02:35:41;21.80;62.50
35363;DHT22;21463;47.480;8.214;2023-07-24T02:36:44;21.80;62.50
35363;DHT22;21463;47.480;8.214;2023-07-24T02:37:46;21.80;63.00
35363;DHT22;21463;47.480;8.214;2023-07-24T02:38:48;21.90;62.60
35363;DHT22;21463;47.480;8.214;2023-07-24T02:39:53;21.80;62.60
35363;DHT22;21463;47.480;8.214;2023-07-24T02:40:56;21.80;62.70
35363;DHT22;21463;47.480;8.214;2023-07-24T02:41:59;21.80;62.70
35363;DHT22;21463;47.480;8.214;2023-07-24T02:43:02;21.90;62.70
35363;DHT22;21463;47.480;8.214;2023-07-24T02:44:05;21.80;62.70
35363;DHT22;21463;47.480;8.214;2023-07-24T02:45:07;21.80;62.80
35363;DHT22;21463;47.480;8.214;2023-07-24T02:46:13;21.90;62.90
35363;DHT22;21463;47.480;8.214;2023-07-24T02:47:15;21.90;62.90
35363;DHT22;21463;47.480;8.214;2023-07-24T02:48:21;21.80;62.90
35363;DHT22;21463;47.480;8.214;2023-07-24T02:49:24;21.80;62.90
35363;DHT22;21463;47.480;8.214;2023-07-24T02:50:27;21.80;63.00
35363;DHT22;21463;47.480;8.214;2023-07-24T02:51:29;21.80;63.00
35363;DHT22;21463;47.480;8.214;2023-07-24T02:52:32;21.80;63.00
35363;DHT22;21463;47.480;8.214;2023-07-24T02:53:34;21.80;63.10
35363;DHT22;21463;47.480;8.214;2023-07-24T02:54:36;21.80;63.10
35363;DHT22;21463;47.480;8.214;2023-07-24T02:55:41;21.90;63.20
35363;DHT22;21463;47.480;8.214;2023-07-24T02:56:44;21.80;63.20
35363;DHT22;21463;47.480;8.214;2023-07-24T02:57:46;21.90;63.30
35363;DHT22;21463;47.480;8.214;2023-07-24T02:58:49;21.80;63.30
35363;DHT22;21463;47.480;8.214;2023-07-24T02:59:51;21.80;63.30
35363;DHT22;21463;47.480;8.214;2023-07-24T03:00:53;21.80;63.30
35363;DHT22;21463;47.480;8.214;2023-07-24T03:01:56;21.90;63.40
35363;DHT22;21463;47.480;8.214;2023-07-24T03:02:58;21.80;63.40
35363;DHT22;21463;47.480;8.214;2023-07-24T03:04:00;21.80;63.40
35363;DHT22;21463;47.480;8.214;2023-07-24T03:05:05;21.80;63.50
35363;DHT22;21463;47.480;8.214;2023-07-24T03:06:08;21.90;63.60
35363;DHT22;21463;47.480;8.214;2023-07-24T03:07:10;21.80;63.60
35363;DHT22;21463;47.480;8.214;2023-07-24T03:08:13;21.80;63.60
35363;DHT22;21463;47.480;8.214;2023-07-24T03:09:15;21.80;63.60
35363;DHT22;21463;47.480;8.214;2023-07-24T03:10:17;21.80;63.60
35363;DHT22;21463;47.480;8.214;2023-07-24T03:11:20;21.80;63.60
35363;DHT22;21463;47.480;8.214;2023-07-24T03:12:23;21.70;63.60
35363;DHT22;21463;47.480;8.214;2023-07-24T03:13:26;21.80;63.70
35363;DHT22;21463;47.480;8.214;2023-07-24T03:14:28;21.70;63.60
35363;DHT22;21463;47.480;8.214;2023-07-24T03:15:30;21.80;63.70
35363;DHT22;21463;47.480;8.214;2023-07-24T03:16:33;21.80;63.70
35363;DHT22;21463;47.480;8.214;2023-07-24T03:17:38;21.80;63.70
35363;DHT22;21463;47.480;8.214;2023-07-24T03:18:40;21.80;63.80
35363;DHT22;21463;47.480;8.214;2023-07-24T03:19:42;21.80;63.80
35363;DHT22;21463;47.480;8.214;2023-07-24T03:20:45;21.80;63.90
35363;DHT22;21463;47.480;8.214;2023-07-24T03:21:47;21.80;63.90
35363;DHT22;21463;47.480;8.214;2023-07-24T03:22:49;21.80;63.90
35363;DHT22;21463;47.480;8.214;2023-07-24T03:23:54;21.80;63.90
35363;DHT22;21463;47.480;8.214;2023-07-24T03:25:00;21.80;64.00
35363;DHT22;21463;47.480;8.214;2023-07-24T03:26:02;21.90;64.00
35363;DHT22;21463;47.480;8.214;2023-07-24T03:27:05;21.90;64.10
35363;DHT22;21463;47.480;8.214;2023-07-24T03:28:07;21.80;64.10
35363;DHT22;21463;47.480;8.214;2023-07-24T03:29:12;21.90;64.10
35363;DHT22;21463;47.480;8.214;2023-07-24T03:30:15;21.80;64.10
35363;DHT22;21463;47.480;8.214;2023-07-24T03:31:17;21.80;64.20
35363;DHT22;21463;47.480;8.214;2023-07-24T03:32:19;21.70;64.10
35363;DHT22;21463;47.480;8.214;2023-07-24T03:33:22;21.80;64.20
35363;DHT22;21463;47.480;8.214;2023-07-24T03:34:26;21.80;64.20
35363;DHT22;21463;47.480;8.214;2023-07-24T03:35:28;21.80;64.30
35363;DHT22;21463;47.480;8.214;2023-07-24T03:36:30;21.80;64.30
35363;DHT22;21463;47.480;8.214;2023-07-24T03:37:36;21.80;64.30
35363;DHT22;21463;47.480;8.214;2023-07-24T03:38:39;21.80;64.30
35363;DHT22;21463;47.480;8.214;2023-07-24T03:39:41;21.80;64.30
35363;DHT22;21463;47.480;8.214;2023-07-24T03:40:43;21.80;64.40
35363;DHT22;21463;47.480;8.214;2023-07-24T03:41:47;21.80;64.30
35363;DHT22;21463;47.480;8.214;2023-07-24T03:42:49;21.90;64.40
35363;DHT22;21463;47.480;8.214;2023-07-24T03:43:54;21.80;64.40
35363;DHT22;21463;47.480;8.214;2023-07-24T03:44:56;21.80;64.40
35363;DHT22;21463;47.480;8.214;2023-07-24T03:45:59;21.80;64.40
35363;DHT22;21463;47.480;8.214;2023-07-24T03:47:01;21.80;64.40
35363;DHT22;21463;47.480;8.214;2023-07-24T03:48:03;21.80;64.50
35363;DHT22;21463;47.480;8.214;2023-07-24T03:49:06;21.90;64.50
35363;DHT22;21463;47.480;8.214;2023-07-24T03:50:08;21.80;64.60
35363;DHT22;21463;47.480;8.214;2023-07-24T03:51:11;21.80;64.60
35363;DHT22;21463;47.480;8.214;2023-07-24T03:52:13;21.80;64.60
35363;DHT22;21463;47.480;8.214;2023-07-24T03:53:15;21.80;64.60
35363;DHT22;21463;47.480;8.214;2023-07-24T03:54:18;21.90;64.60
35363;DHT22;21463;47.480;8.214;2023-07-24T03:55:20;21.80;64.60
35363;DHT22;21463;47.480;8.214;2023-07-24T03:56:23;21.90;64.70
35363;DHT22;21463;47.480;8.214;2023-07-24T03:57:26;21.80;64.60
35363;DHT22;21463;47.480;8.214;2023-07-24T03:58:28;21.70;64.60
35363;DHT22;21463;47.480;8.214;2023-07-24T03:59:30;21.80;64.70
35363;DHT22;21463;47.480;8.214;2023-07-24T04:00:33;21.80;64.70
35363;DHT22;21463;47.480;8.214;2023-07-24T04:01:35;21.80;64.70
35363;DHT22;21463;47.480;8.214;2023-07-24T04:02:37;21.90;64.80
35363;DHT22;21463;47.480;8.214;2023-07-24T04:03:42;21.80;64.80
35363;DHT22;21463;47.480;8.214;2023-07-24T04:04:44;21.90;64.80
35363;DHT22;21463;47.480;8.214;2023-07-24T04:05:46;21.80;65.30
35363;DHT22;21463;47.480;8.214;2023-07-24T04:06:49;21.80;64.80
35363;DHT22;21463;47.480;8.214;2023-07-24T04:07:51;21.80;64.80
35363;DHT22;21463;47.480;8.214;2023-07-24T04:08:53;21.80;64.80
35363;DHT22;21463;47.480;8.214;2023-07-24T04:09:56;21.80;65.40
35363;DHT22;21463;47.480;8.214;2023-07-24T04:10:58;21.80;64.90
35363;DHT22;21463;47.480;8.214;2023-07-24T04:12:01;21.80;64.90
35363;DHT22;21463;47.480;8.214;2023-07-24T04:13:03;21.80;64.90
35363;DHT22;21463;47.480;8.214;2023-07-24T04:14:06;21.80;64.90
35363;DHT22;21463;47.480;8.214;2023-07-24T04:15:09;21.80;64.90
35363;DHT22;21463;47.480;8.214;2023-07-24T04:16:13;21.80;64.90
35363;DHT22;21463;47.480;8.214;2023-07-24T04:17:15;21.80;65.00
35363;DHT22;21463;47.480;8.214;2023-07-24T04:18:18;21.80;65.50
35363;DHT22;21463;47.480;8.214;2023-07-24T04:19:21;21.90;65.10
35363;DHT22;21463;47.480;8.214;2023-07-24T04:20:23;20.20;64.20
35363;DHT22;21463;47.480;8.214;2023-07-24T04:21:26;21.80;65.10
35363;DHT22;21463;47.480;8.214;2023-07-24T04:22:28;21.80;65.10
35363;DHT22;21463;47.480;8.214;2023-07-24T04:23:30;21.80;65.20
35363;DHT22;21463;47.480;8.214;2023-07-24T04:24:32;21.90;65.30
35363;DHT22;21463;47.480;8.214;2023-07-24T04:25:35;21.80;65.20
35363;DHT22;21463;47.480;8.214;2023-07-24T04:26:37;21.80;65.30
35363;DHT22;21463;47.480;8.214;2023-07-24T04:27:41;21.80;65.30
35363;DHT22;21463;47.480;8.214;2023-07-24T04:28:43;21.80;65.30
35363;DHT22;21463;47.480;8.214;2023-07-24T04:29:46;21.80;65.30
35363;DHT22;21463;47.480;8.214;2023-07-24T04:30:48;21.80;65.30
35363;DHT22;21463;47.480;8.214;2023-07-24T04:31:50;21.80;65.30
35363;DHT22;21463;47.480;8.214;2023-07-24T04:32:53;21.80;65.30
35363;DHT22;21463;47.480;8.214;2023-07-24T04:33:57;21.80;65.30
35363;DHT22;21463;47.480;8.214;2023-07-24T04:35:00;21.80;65.40
35363;DHT22;21463;47.480;8.214;2023-07-24T04:36:05;21.80;65.40
35363;DHT22;21463;47.480;8.214;2023-07-24T04:37:07;21.00;65.00
35363;DHT22;21463;47.480;8.214;2023-07-24T04:38:10;21.80;65.50
35363;DHT22;21463;47.480;8.214;2023-07-24T04:39:14;21.80;65.50
35363;DHT22;21463;47.480;8.214;2023-07-24T04:40:16;21.80;65.60
35363;DHT22;21463;47.480;8.214;2023-07-24T04:41:21;21.80;65.50
35363;DHT22;21463;47.480;8.214;2023-07-24T04:42:23;21.80;65.50
35363;DHT22;21463;47.480;8.214;2023-07-24T04:43:25;21.80;65.60
35363;DHT22;21463;47.480;8.214;2023-07-24T04:44:28;21.80;65.70
35363;DHT22;21463;47.480;8.214;2023-07-24T04:45:30;21.90;65.70
35363;DHT22;21463;47.480;8.214;2023-07-24T04:46:32;21.80;65.70
35363;DHT22;21463;47.480;8.214;2023-07-24T04:47:37;21.80;65.70
35363;DHT22;21463;47.480;8.214;2023-07-24T04:48:40;21.80;65.60
35363;DHT22;21463;47.480;8.214;2023-07-24T04:49:43;21.80;65.70
35363;DHT22;21463;47.480;8.214;2023-07-24T04:50:45;21.80;65.70
35363;DHT22;21463;47.480;8.214;2023-07-24T04:51:47;21.90;65.80
35363;DHT22;21463;47.480;8.214;2023-07-24T04:52:50;21.80;65.70
35363;DHT22;21463;47.480;8.214;2023-07-24T04:53:53;21.80;65.70
35363;DHT22;21463;47.480;8.214;2023-07-24T04:54:55;21.90;65.80
35363;DHT22;21463;47.480;8.214;2023-07-24T04:55:58;21.80;65.70
35363;DHT22;21463;47.480;8.214;2023-07-24T04:57:00;21.80;65.70
35363;DHT22;21463;47.480;8.214;2023-07-24T04:58:02;21.80;65.70
35363;DHT22;21463;47.480;8.214;2023-07-24T04:59:07;21.80;65.70
35363;DHT22;21463;47.480;8.214;2023-07-24T05:00:10;21.80;65.70
35363;DHT22;21463;47.480;8.214;2023-07-24T05:01:13;21.80;65.80
35363;DHT22;21463;47.480;8.214;2023-07-24T05:02:29;21.80;65.90
35363;DHT22;21463;47.480;8.214;2023-07-24T05:03:31;21.80;65.80
35363;DHT22;21463;47.480;8.214;2023-07-24T05:04:34;21.70;65.80
35363;DHT22;21463;47.480;8.214;2023-07-24T05:05:39;21.90;65.90
35363;DHT22;21463;47.480;8.214;2023-07-24T05:06:46;21.80;65.80
35363;DHT22;21463;47.480;8.214;2023-07-24T05:07:49;21.80;65.80
35363;DHT22;21463;47.480;8.214;2023-07-24T05:08:52;21.80;65.80
35363;DHT22;21463;47.480;8.214;2023-07-24T05:09:54;21.80;65.90
35363;DHT22;21463;47.480;8.214;2023-07-24T05:10:57;21.80;66.10
35363;DHT22;21463;47.480;8.214;2023-07-24T05:11:59;21.80;66.10
35363;DHT22;21463;47.480;8.214;2023-07-24T05:13:01;21.80;66.00
35363;DHT22;21463;47.480;8.214;2023-07-24T05:14:04;21.80;66.00
35363;DHT22;21463;47.480;8.214;2023-07-24T05:15:09;21.80;65.80
35363;DHT22;21463;47.480;8.214;2023-07-24T05:16:11;21.80;65.80
35363;DHT22;21463;47.480;8.214;2023-07-24T05:17:14;21.80;65.90
35363;DHT22;21463;47.480;8.214;2023-07-24T05:18:16;21.80;66.00
35363;DHT22;21463;47.480;8.214;2023-07-24T05:19:19;21.80;66.00
35363;DHT22;21463;47.480;8.214;2023-07-24T05:20:21;21.80;65.90
35363;DHT22;21463;47.480;8.214;2023-07-24T05:21:23;21.80;65.80
35363;DHT22;21463;47.480;8.214;2023-07-24T05:22:26;21.90;65.80
35363;DHT22;21463;47.480;8.214;2023-07-24T05:23:28;21.80;65.80
35363;DHT22;21463;47.480;8.214;2023-07-24T05:24:30;21.80;65.80
35363;DHT22;21463;47.480;8.214;2023-07-24T05:25:33;21.80;65.90
35363;DHT22;21463;47.480;8.214;2023-07-24T05:26:35;21.80;66.00
35363;DHT22;21463;47.480;8.214;2023-07-24T05:27:37;21.80;65.80
35363;DHT22;21463;47.480;8.214;2023-07-24T05:28:39;21.80;65.90
35363;DHT22;21463;47.480;8.214;2023-07-24T05:29:42;21.90;65.90
35363;DHT22;21463;47.480;8.214;2023-07-24T05:30:44;21.80;65.80
35363;DHT22;21463;47.480;8.214;2023-07-24T05:31:46;21.80;65.80
35363;DHT22;21463;47.480;8.214;2023-07-24T05:32:49;21.90;65.80
35363;DHT22;21463;47.480;8.214;2023-07-24T05:33:51;21.80;65.90
35363;DHT22;21463;47.480;8.214;2023-07-24T05:34:53;21.80;65.90
35363;DHT22;21463;47.480;8.214;2023-07-24T05:35:59;21.80;66.00
35363;DHT22;21463;47.480;8.214;2023-07-24T05:37:01;21.80;66.00
35363;DHT22;21463;47.480;8.214;2023-07-24T05:38:04;21.90;66.10
35363;DHT22;21463;47.480;8.214;2023-07-24T05:39:06;21.90;66.00
35363;DHT22;21463;47.480;8.214;2023-07-24T05:40:09;21.80;65.90
35363;DHT22;21463;47.480;8.214;2023-07-24T05:41:11;21.80;65.90
35363;DHT22;21463;47.480;8.214;2023-07-24T05:42:16;21.90;66.00
35363;DHT22;21463;47.480;8.214;2023-07-24T05:43:18;21.80;66.10
35363;DHT22;21463;47.480;8.214;2023-07-24T05:44:21;21.80;66.10
35363;DHT22;21463;47.480;8.214;2023-07-24T05:45:23;21.90;66.20
35363;DHT22;21463;47.480;8.214;2023-07-24T05:46:25;21.80;66.10
35363;DHT22;21463;47.480;8.214;2023-07-24T05:47:28;21.80;66.10
35363;DHT22;21463;47.480;8.214;2023-07-24T05:48:32;21.80;66.10
35363;DHT22;21463;47.480;8.214;2023-07-24T05:49:35;21.80;66.30
35363;DHT22;21463;47.480;8.214;2023-07-24T05:50:37;21.90;66.30
35363;DHT22;21463;47.480;8.214;2023-07-24T05:51:40;21.90;66.40
35363;DHT22;21463;47.480;8.214;2023-07-24T05:52:42;21.90;66.50
35363;DHT22;21463;47.480;8.214;2023-07-24T05:53:44;21.90;66.50
35363;DHT22;21463;47.480;8.214;2023-07-24T05:54:47;21.80;66.60
35363;DHT22;21463;47.480;8.214;2023-07-24T05:55:56;21.80;66.60
35363;DHT22;21463;47.480;8.214;2023-07-24T05:56:58;21.80;66.60
35363;DHT22;21463;47.480;8.214;2023-07-24T05:58:00;21.90;66.70
35363;DHT22;21463;47.480;8.214;2023-07-24T05:59:03;21.80;66.70
35363;DHT22;21463;47.480;8.214;2023-07-24T06:00:05;21.80;66.60
35363;DHT22;21463;47.480;8.214;2023-07-24T06:01:12;21.90;66.60
35363;DHT22;21463;47.480;8.214;2023-07-24T06:02:14;21.90;66.50
35363;DHT22;21463;47.480;8.214;2023-07-24T06:03:17;21.90;66.50
35363;DHT22;21463;47.480;8.214;2023-07-24T06:04:19;21.90;66.70
35363;DHT22;21463;47.480;8.214;2023-07-24T06:05:21;21.90;66.80
35363;DHT22;21463;47.480;8.214;2023-07-24T06:06:24;21.90;66.80
35363;DHT22;21463;47.480;8.214;2023-07-24T06:07:29;21.90;66.80
35363;DHT22;21463;47.480;8.214;2023-07-24T06:08:33;21.90;66.80
35363;DHT22;21463;47.480;8.214;2023-07-24T06:09:36;21.90;66.90
35363;DHT22;21463;47.480;8.214;2023-07-24T06:10:38;22.00;67.00
35363;DHT22;21463;47.480;8.214;2023-07-24T06:11:40;21.90;66.90
35363;DHT22;21463;47.480;8.214;2023-07-24T06:12:42;21.90;66.90
35363;DHT22;21463;47.480;8.214;2023-07-24T06:13:45;21.90;66.90
35363;DHT22;21463;47.480;8.214;2023-07-24T06:14:47;21.90;66.90
35363;DHT22;21463;47.480;8.214;2023-07-24T06:15:49;21.90;67.00
35363;DHT22;21463;47.480;8.214;2023-07-24T06:16:52;21.90;67.00
35363;DHT22;21463;47.480;8.214;2023-07-24T06:17:54;21.90;66.90
35363;DHT22;21463;47.480;8.214;2023-07-24T06:18:56;21.90;66.90
35363;DHT22;21463;47.480;8.214;2023-07-24T06:19:59;21.90;67.00
35363;DHT22;21463;47.480;8.214;2023-07-24T06:21:01;21.90;67.00
35363;DHT22;21463;47.480;8.214;2023-07-24T06:22:03;21.90;67.00
35363;DHT22;21463;47.480;8.214;2023-07-24T06:23:06;21.90;67.00
35363;DHT22;21463;47.480;8.214;2023-07-24T06:24:08;21.90;66.90
35363;DHT22;21463;47.480;8.214;2023-07-24T06:25:14;21.90;66.90
35363;DHT22;21463;47.480;8.214;2023-07-24T06:26:16;21.90;67.00
35363;DHT22;21463;47.480;8.214;2023-07-24T06:27:19;21.90;67.00
35363;DHT22;21463;47.480;8.214;2023-07-24T06:28:21;21.90;67.10
35363;DHT22;21463;47.480;8.214;2023-07-24T06:29:23;21.90;67.10
35363;DHT22;21463;47.480;8.214;2023-07-24T06:30:27;21.90;67.00
35363;DHT22;21463;47.480;8.214;2023-07-24T06:31:29;22.00;67.10
35363;DHT22;21463;47.480;8.214;2023-07-24T06:32:31;22.00;67.10
35363;DHT22;21463;47.480;8.214;2023-07-24T06:33:34;21.90;67.10
35363;DHT22;21463;47.480;8.214;2023-07-24T06:34:39;21.90;67.00
35363;DHT22;21463;47.480;8.214;2023-07-24T06:35:42;22.00;67.10
35363;DHT22;21463;47.480;8.214;2023-07-24T06:36:44;22.00;67.10
35363;DHT22;21463;47.480;8.214;2023-07-24T06:37:52;21.90;67.10
35363;DHT22;21463;47.480;8.214;2023-07-24T06:38:54;22.00;67.20
35363;DHT22;21463;47.480;8.214;2023-07-24T06:39:56;22.00;67.20
35363;DHT22;21463;47.480;8.214;2023-07-24T06:40:58;21.90;67.10